Terminal Aerodrome Forecast
Issued by NWS

Home | Current Version | Previous Version | Text Only | Print | Product List | Glossary On
Versions: 1 2 3 4 5 6 7 8 9 10 11 12 13 14 15
000
FTUS45 KVEF 221121
TAFHND
TAF
KHND 221121Z 2212/2312 18006KT P6SM SKC
     FM221700 05004KT P6SM SCT110 BKN250
     FM222100 17007KT P6SM SCT110 BKN250
     FM230500 20008KT P6SM SKC=

USA.gov is the U.S. government's official web portal to all federal, state and local government web resources and services.